sensor_id;sensor_type;location;lat;lon;timestamp;P1;durP1;ratioP1;P2;durP2;ratioP2
76119;SDS011;64852;48.092;-1.640;2023-06-22T00:00:50;1.70;;;1.27;;
76119;SDS011;64852;48.092;-1.640;2023-06-22T00:03:17;5.65;;;2.20;;
76119;SDS011;64852;48.092;-1.640;2023-06-22T00:05:44;2.17;;;1.27;;
76119;SDS011;64852;48.092;-1.640;2023-06-22T00:08:14;1.67;;;1.15;;
76119;SDS011;64852;48.092;-1.640;2023-06-22T00:10:40;1.92;;;1.52;;
76119;SDS011;64852;48.092;-1.640;2023-06-22T00:13:06;1.20;;;1.15;;
76119;SDS011;64852;48.092;-1.640;2023-06-22T00:15:33;1.90;;;1.70;;
76119;SDS011;64852;48.092;-1.640;2023-06-22T00:17:59;1.88;;;1.60;;
76119;SDS011;64852;48.092;-1.640;2023-06-22T00:20:25;1.77;;;1.65;;
76119;SDS011;64852;48.092;-1.640;2023-06-22T00:22:55;1.90;;;1.80;;
76119;SDS011;64852;48.092;-1.640;2023-06-22T00:25:21;1.70;;;1.60;;
76119;SDS011;64852;48.092;-1.640;2023-06-22T00:27:47;1.70;;;1.38;;
76119;SDS011;64852;48.092;-1.640;2023-06-22T00:30:15;2.63;;;2.22;;
76119;SDS011;64852;48.092;-1.640;2023-06-22T00:32:42;1.70;;;1.50;;
76119;SDS011;64852;48.092;-1.640;2023-06-22T00:37:35;1.25;;;1.15;;
76119;SDS011;64852;48.092;-1.640;2023-06-22T00:40:01;1.70;;;1.50;;
76119;SDS011;64852;48.092;-1.640;2023-06-22T00:42:27;1.88;;;1.75;;
76119;SDS011;64852;48.092;-1.640;2023-06-22T00:44:53;2.37;;;1.80;;
76119;SDS011;64852;48.092;-1.640;2023-06-22T00:47:19;2.20;;;1.73;;
76119;SDS011;64852;48.092;-1.640;2023-06-22T00:49:45;2.83;;;2.25;;
76119;SDS011;64852;48.092;-1.640;2023-06-22T00:52:13;1.60;;;1.50;;
76119;SDS011;64852;48.092;-1.640;2023-06-22T00:54:45;3.40;;;1.52;;
76119;SDS011;64852;48.092;-1.640;2023-06-22T00:57:14;2.65;;;2.05;;
76119;SDS011;64852;48.092;-1.640;2023-06-22T00:59:43;2.10;;;1.70;;
76119;SDS011;64852;48.092;-1.640;2023-06-22T01:04:36;2.28;;;2.17;;
76119;SDS011;64852;48.092;-1.640;2023-06-22T01:07:07;6.72;;;2.55;;
76119;SDS011;64852;48.092;-1.640;2023-06-22T01:09:46;2.33;;;1.67;;
76119;SDS011;64852;48.092;-1.640;2023-06-22T01:12:30;7.15;;;1.88;;
76119;SDS011;64852;48.092;-1.640;2023-06-22T01:15:06;1.85;;;1.70;;
76119;SDS011;64852;48.092;-1.640;2023-06-22T01:17:35;2.20;;;2.10;;
76119;SDS011;64852;48.092;-1.640;2023-06-22T01:20:05;2.05;;;1.95;;
76119;SDS011;64852;48.092;-1.640;2023-06-22T01:22:35;1.90;;;1.80;;
76119;SDS011;64852;48.092;-1.640;2023-06-22T01:25:23;2.33;;;2.13;;
76119;SDS011;64852;48.092;-1.640;2023-06-22T01:27:58;2.00;;;1.90;;
76119;SDS011;64852;48.092;-1.640;2023-06-22T01:30:34;2.15;;;1.50;;
76119;SDS011;64852;48.092;-1.640;2023-06-22T01:33:00;2.35;;;2.10;;
76119;SDS011;64852;48.092;-1.640;2023-06-22T01:35:28;2.10;;;2.00;;
76119;SDS011;64852;48.092;-1.640;2023-06-22T01:37:54;3.72;;;2.00;;
76119;SDS011;64852;48.092;-1.640;2023-06-22T01:40:20;3.85;;;2.55;;
76119;SDS011;64852;48.092;-1.640;2023-06-22T01:42:47;2.85;;;2.60;;
76119;SDS011;64852;48.092;-1.640;2023-06-22T01:45:13;2.45;;;2.25;;
76119;SDS011;64852;48.092;-1.640;2023-06-22T01:47:40;2.58;;;2.35;;
76119;SDS011;64852;48.092;-1.640;2023-06-22T01:50:07;2.47;;;2.20;;
76119;SDS011;64852;48.092;-1.640;2023-06-22T01:54:59;2.97;;;2.55;;
76119;SDS011;64852;48.092;-1.640;2023-06-22T01:57:25;6.63;;;3.15;;
76119;SDS011;64852;48.092;-1.640;2023-06-22T02:03:08;2.65;;;2.50;;
76119;SDS011;64852;48.092;-1.640;2023-06-22T02:05:29;2.58;;;2.38;;
76119;SDS011;64852;48.092;-1.640;2023-06-22T02:08:01;2.42;;;2.22;;
76119;SDS011;64852;48.092;-1.640;2023-06-22T02:10:30;2.60;;;2.40;;
76119;SDS011;64852;48.092;-1.640;2023-06-22T02:12:57;3.22;;;3.00;;
76119;SDS011;64852;48.092;-1.640;2023-06-22T02:15:25;3.20;;;2.90;;
76119;SDS011;64852;48.092;-1.640;2023-06-22T02:17:51;2.00;;;1.90;;
76119;SDS011;64852;48.092;-1.640;2023-06-22T02:20:17;2.67;;;2.47;;
76119;SDS011;64852;48.092;-1.640;2023-06-22T02:22:43;2.70;;;2.50;;
76119;SDS011;64852;48.092;-1.640;2023-06-22T02:25:08;2.10;;;2.00;;
76119;SDS011;64852;48.092;-1.640;2023-06-22T02:27:34;4.40;;;2.80;;
76119;SDS011;64852;48.092;-1.640;2023-06-22T02:30:00;2.80;;;2.60;;
76119;SDS011;64852;48.092;-1.640;2023-06-22T02:32:25;3.13;;;2.40;;
76119;SDS011;64852;48.092;-1.640;2023-06-22T02:34:52;3.27;;;2.03;;
76119;SDS011;64852;48.092;-1.640;2023-06-22T02:37:17;2.08;;;1.98;;
76119;SDS011;64852;48.092;-1.640;2023-06-22T02:39:43;2.03;;;1.93;;
76119;SDS011;64852;48.092;-1.640;2023-06-22T02:42:09;3.92;;;2.47;;
76119;SDS011;64852;48.092;-1.640;2023-06-22T02:44:38;3.80;;;2.53;;
76119;SDS011;64852;48.092;-1.640;2023-06-22T02:47:04;2.37;;;2.27;;
76119;SDS011;64852;48.092;-1.640;2023-06-22T02:49:30;2.15;;;2.05;;
76119;SDS011;64852;48.092;-1.640;2023-06-22T02:51:57;8.63;;;2.97;;
76119;SDS011;64852;48.092;-1.640;2023-06-22T02:54:22;2.65;;;2.45;;
76119;SDS011;64852;48.092;-1.640;2023-06-22T02:56:48;2.40;;;2.20;;
76119;SDS011;64852;48.092;-1.640;2023-06-22T02:59:15;2.03;;;1.92;;
76119;SDS011;64852;48.092;-1.640;2023-06-22T03:01:41;2.80;;;2.50;;
76119;SDS011;64852;48.092;-1.640;2023-06-22T03:04:07;2.17;;;2.07;;
76119;SDS011;64852;48.092;-1.640;2023-06-22T03:06:33;2.33;;;2.13;;
76119;SDS011;64852;48.092;-1.640;2023-06-22T03:08:59;2.63;;;2.42;;
76119;SDS011;64852;48.092;-1.640;2023-06-22T03:11:26;2.75;;;2.55;;
76119;SDS011;64852;48.092;-1.640;2023-06-22T03:13:52;2.80;;;2.60;;
76119;SDS011;64852;48.092;-1.640;2023-06-22T03:16:18;2.50;;;2.33;;
76119;SDS011;64852;48.092;-1.640;2023-06-22T03:18:44;3.65;;;2.60;;
76119;SDS011;64852;48.092;-1.640;2023-06-22T03:21:10;2.90;;;2.70;;
76119;SDS011;64852;48.092;-1.640;2023-06-22T03:23:36;2.70;;;2.57;;
76119;SDS011;64852;48.092;-1.640;2023-06-22T03:26:02;8.67;;;2.87;;
76119;SDS011;64852;48.092;-1.640;2023-06-22T03:28:29;4.55;;;2.65;;
76119;SDS011;64852;48.092;-1.640;2023-06-22T03:30:56;3.03;;;2.83;;
76119;SDS011;64852;48.092;-1.640;2023-06-22T03:33:22;2.88;;;2.78;;
76119;SDS011;64852;48.092;-1.640;2023-06-22T03:35:48;3.70;;;3.43;;
76119;SDS011;64852;48.092;-1.640;2023-06-22T03:38:15;9.90;;;3.15;;
76119;SDS011;64852;48.092;-1.640;2023-06-22T03:40:41;3.20;;;3.00;;
76119;SDS011;64852;48.092;-1.640;2023-06-22T03:43:06;3.13;;;2.93;;
76119;SDS011;64852;48.092;-1.640;2023-06-22T03:45:32;2.60;;;2.50;;
76119;SDS011;64852;48.092;-1.640;2023-06-22T03:47:58;3.00;;;2.80;;
76119;SDS011;64852;48.092;-1.640;2023-06-22T03:50:23;6.03;;;3.20;;
76119;SDS011;64852;48.092;-1.640;2023-06-22T03:52:49;3.60;;;3.30;;
76119;SDS011;64852;48.092;-1.640;2023-06-22T03:55:17;6.10;;;3.92;;
76119;SDS011;64852;48.092;-1.640;2023-06-22T03:57:44;2.97;;;2.78;;
76119;SDS011;64852;48.092;-1.640;2023-06-22T04:00:10;3.43;;;3.23;;
76119;SDS011;64852;48.092;-1.640;2023-06-22T04:02:36;3.40;;;3.10;;
76119;SDS011;64852;48.092;-1.640;2023-06-22T04:05:02;6.73;;;3.20;;
76119;SDS011;64852;48.092;-1.640;2023-06-22T04:07:27;3.50;;;3.30;;
76119;SDS011;64852;48.092;-1.640;2023-06-22T04:09:53;3.90;;;3.50;;
76119;SDS011;64852;48.092;-1.640;2023-06-22T04:12:18;3.77;;;3.57;;
76119;SDS011;64852;48.092;-1.640;2023-06-22T04:14:44;3.90;;;3.60;;
76119;SDS011;64852;48.092;-1.640;2023-06-22T04:17:10;3.20;;;3.00;;
76119;SDS011;64852;48.092;-1.640;2023-06-22T04:19:40;3.13;;;2.92;;
76119;SDS011;64852;48.092;-1.640;2023-06-22T04:22:05;7.65;;;3.60;;
76119;SDS011;64852;48.092;-1.640;2023-06-22T04:26:58;2.80;;;2.60;;
76119;SDS011;64852;48.092;-1.640;2023-06-22T04:29:28;3.63;;;3.28;;
76119;SDS011;64852;48.092;-1.640;2023-06-22T04:31:55;4.05;;;3.83;;
76119;SDS011;64852;48.092;-1.640;2023-06-22T04:34:23;3.75;;;3.47;;
76119;SDS011;64852;48.092;-1.640;2023-06-22T04:36:51;3.67;;;3.47;;
76119;SDS011;64852;48.092;-1.640;2023-06-22T04:39:17;3.43;;;3.23;;
76119;SDS011;64852;48.092;-1.640;2023-06-22T04:41:44;3.80;;;3.60;;
76119;SDS011;64852;48.092;-1.640;2023-06-22T04:44:13;4.50;;;4.10;;
76119;SDS011;64852;48.092;-1.640;2023-06-22T04:46:56;3.60;;;3.40;;
76119;SDS011;64852;48.092;-1.640;2023-06-22T04:49:27;3.90;;;3.60;;
76119;SDS011;64852;48.092;-1.640;2023-06-22T04:52:07;4.05;;;3.70;;
76119;SDS011;64852;48.092;-1.640;2023-06-22T04:54:35;4.20;;;3.87;;
76119;SDS011;64852;48.092;-1.640;2023-06-22T04:57:02;4.40;;;4.10;;
76119;SDS011;64852;48.092;-1.640;2023-06-22T04:59:30;3.70;;;3.50;;
76119;SDS011;64852;48.092;-1.640;2023-06-22T05:04:23;3.25;;;3.05;;
76119;SDS011;64852;48.092;-1.640;2023-06-22T05:06:53;3.88;;;3.65;;
76119;SDS011;64852;48.092;-1.640;2023-06-22T05:09:19;3.55;;;3.35;;
76119;SDS011;64852;48.092;-1.640;2023-06-22T05:11:46;3.65;;;3.45;;
76119;SDS011;64852;48.092;-1.640;2023-06-22T05:14:12;4.47;;;4.18;;
76119;SDS011;64852;48.092;-1.640;2023-06-22T05:16:37;4.45;;;4.13;;
76119;SDS011;64852;48.092;-1.640;2023-06-22T05:21:30;4.03;;;3.72;;
76119;SDS011;64852;48.092;-1.640;2023-06-22T05:23:56;4.53;;;4.18;;
76119;SDS011;64852;48.092;-1.640;2023-06-22T05:26:27;3.63;;;3.42;;
76119;SDS011;64852;48.092;-1.640;2023-06-22T05:28:54;4.40;;;4.10;;
76119;SDS011;64852;48.092;-1.640;2023-06-22T05:31:20;5.10;;;4.77;;
76119;SDS011;64852;48.092;-1.640;2023-06-22T05:33:46;5.10;;;4.65;;
76119;SDS011;64852;48.092;-1.640;2023-06-22T05:36:12;5.57;;;4.68;;
76119;SDS011;64852;48.092;-1.640;2023-06-22T05:38:39;5.07;;;4.63;;
76119;SDS011;64852;48.092;-1.640;2023-06-22T05:41:05;3.85;;;3.65;;
76119;SDS011;64852;48.092;-1.640;2023-06-22T05:43:31;8.00;;;4.03;;
76119;SDS011;64852;48.092;-1.640;2023-06-22T05:45:56;3.53;;;3.33;;
76119;SDS011;64852;48.092;-1.640;2023-06-22T05:48:23;6.55;;;4.10;;
76119;SDS011;64852;48.092;-1.640;2023-06-22T05:50:49;3.60;;;3.40;;
76119;SDS011;64852;48.092;-1.640;2023-06-22T05:53:15;4.07;;;3.78;;
76119;SDS011;64852;48.092;-1.640;2023-06-22T05:55:40;3.83;;;3.60;;
76119;SDS011;64852;48.092;-1.640;2023-06-22T05:58:07;4.57;;;4.18;;
76119;SDS011;64852;48.092;-1.640;2023-06-22T06:00:33;4.07;;;3.78;;
76119;SDS011;64852;48.092;-1.640;2023-06-22T06:02:59;3.40;;;3.20;;
76119;SDS011;64852;48.092;-1.640;2023-06-22T06:05:31;3.80;;;3.50;;
76119;SDS011;64852;48.092;-1.640;2023-06-22T06:07:59;3.90;;;3.70;;
76119;SDS011;64852;48.092;-1.640;2023-06-22T06:10:25;4.18;;;3.85;;
76119;SDS011;64852;48.092;-1.640;2023-06-22T06:12:51;4.03;;;3.83;;
76119;SDS011;64852;48.092;-1.640;2023-06-22T06:15:17;3.65;;;3.45;;
76119;SDS011;64852;48.092;-1.640;2023-06-22T06:17:49;3.97;;;3.53;;
76119;SDS011;64852;48.092;-1.640;2023-06-22T06:20:20;3.10;;;2.90;;
76119;SDS011;64852;48.092;-1.640;2023-06-22T06:22:47;3.38;;;3.17;;
76119;SDS011;64852;48.092;-1.640;2023-06-22T06:25:13;4.18;;;3.80;;
76119;SDS011;64852;48.092;-1.640;2023-06-22T06:27:42;3.40;;;3.20;;
76119;SDS011;64852;48.092;-1.640;2023-06-22T06:30:09;6.63;;;3.50;;
76119;SDS011;64852;48.092;-1.640;2023-06-22T06:32:35;3.45;;;3.25;;
76119;SDS011;64852;48.092;-1.640;2023-06-22T06:35:01;3.80;;;3.50;;
76119;SDS011;64852;48.092;-1.640;2023-06-22T06:37:27;4.07;;;3.77;;
76119;SDS011;64852;48.092;-1.640;2023-06-22T06:39:53;4.10;;;3.80;;
76119;SDS011;64852;48.092;-1.640;2023-06-22T06:42:18;3.67;;;3.47;;
76119;SDS011;64852;48.092;-1.640;2023-06-22T06:44:44;3.83;;;3.55;;
76119;SDS011;64852;48.092;-1.640;2023-06-22T06:47:10;4.73;;;3.80;;
76119;SDS011;64852;48.092;-1.640;2023-06-22T06:49:36;4.17;;;3.80;;
76119;SDS011;64852;48.092;-1.640;2023-06-22T06:52:01;6.50;;;4.27;;
76119;SDS011;64852;48.092;-1.640;2023-06-22T06:54:27;3.40;;;3.20;;
76119;SDS011;64852;48.092;-1.640;2023-06-22T06:56:53;4.90;;;4.40;;
76119;SDS011;64852;48.092;-1.640;2023-06-22T06:59:18;3.80;;;3.50;;
76119;SDS011;64852;48.092;-1.640;2023-06-22T07:01:44;6.40;;;4.00;;
76119;SDS011;64852;48.092;-1.640;2023-06-22T07:04:10;4.23;;;3.93;;
76119;SDS011;64852;48.092;-1.640;2023-06-22T07:06:35;3.85;;;3.55;;
76119;SDS011;64852;48.092;-1.640;2023-06-22T07:09:02;3.60;;;3.40;;
76119;SDS011;64852;48.092;-1.640;2023-06-22T07:11:28;3.72;;;3.22;;
76119;SDS011;64852;48.092;-1.640;2023-06-22T07:13:54;3.73;;;3.53;;
76119;SDS011;64852;48.092;-1.640;2023-06-22T07:16:19;3.53;;;3.30;;
76119;SDS011;64852;48.092;-1.640;2023-06-22T07:18:45;3.93;;;3.57;;
76119;SDS011;64852;48.092;-1.640;2023-06-22T07:21:11;3.53;;;3.33;;
76119;SDS011;64852;48.092;-1.640;2023-06-22T07:23:36;4.17;;;3.83;;
76119;SDS011;64852;48.092;-1.640;2023-06-22T07:26:02;9.97;;;3.80;;
76119;SDS011;64852;48.092;-1.640;2023-06-22T07:28:28;3.70;;;3.50;;
76119;SDS011;64852;48.092;-1.640;2023-06-22T07:30:56;3.50;;;3.30;;
76119;SDS011;64852;48.092;-1.640;2023-06-22T07:33:22;4.05;;;3.78;;
76119;SDS011;64852;48.092;-1.640;2023-06-22T07:35:47;4.80;;;3.83;;
76119;SDS011;64852;48.092;-1.640;2023-06-22T07:38:13;3.13;;;2.97;;
76119;SDS011;64852;48.092;-1.640;2023-06-22T07:40:40;4.07;;;3.78;;
76119;SDS011;64852;48.092;-1.640;2023-06-22T07:43:06;3.00;;;2.80;;
76119;SDS011;64852;48.092;-1.640;2023-06-22T07:45:32;3.43;;;3.17;;
76119;SDS011;64852;48.092;-1.640;2023-06-22T07:48:00;3.22;;;3.03;;
76119;SDS011;64852;48.092;-1.640;2023-06-22T07:50:26;3.50;;;3.30;;
76119;SDS011;64852;48.092;-1.640;2023-06-22T07:52:51;3.73;;;3.43;;
76119;SDS011;64852;48.092;-1.640;2023-06-22T07:55:18;3.42;;;3.22;;
76119;SDS011;64852;48.092;-1.640;2023-06-22T07:57:43;10.57;;;3.95;;
76119;SDS011;64852;48.092;-1.640;2023-06-22T08:00:09;3.83;;;3.53;;
76119;SDS011;64852;48.092;-1.640;2023-06-22T08:02:40;3.53;;;3.30;;
76119;SDS011;64852;48.092;-1.640;2023-06-22T08:05:07;3.10;;;2.92;;
76119;SDS011;64852;48.092;-1.640;2023-06-22T08:07:35;15.68;;;4.13;;
76119;SDS011;64852;48.092;-1.640;2023-06-22T08:10:03;3.28;;;3.08;;
76119;SDS011;64852;48.092;-1.640;2023-06-22T08:14:54;3.33;;;2.80;;
76119;SDS011;64852;48.092;-1.640;2023-06-22T08:17:21;3.60;;;3.30;;
76119;SDS011;64852;48.092;-1.640;2023-06-22T08:19:48;3.70;;;2.85;;
76119;SDS011;64852;48.092;-1.640;2023-06-22T08:22:13;2.70;;;2.60;;
76119;SDS011;64852;48.092;-1.640;2023-06-22T08:24:39;3.33;;;3.13;;
76119;SDS011;64852;48.092;-1.640;2023-06-22T08:27:06;3.47;;;3.27;;
76119;SDS011;64852;48.092;-1.640;2023-06-22T08:29:34;2.58;;;2.47;;
76119;SDS011;64852;48.092;-1.640;2023-06-22T08:31:59;6.77;;;2.80;;
76119;SDS011;64852;48.092;-1.640;2023-06-22T08:34:25;4.00;;;3.57;;
76119;SDS011;64852;48.092;-1.640;2023-06-22T08:36:52;2.88;;;2.67;;
76119;SDS011;64852;48.092;-1.640;2023-06-22T08:39:21;2.83;;;2.63;;
76119;SDS011;64852;48.092;-1.640;2023-06-22T08:41:47;3.70;;;2.35;;
76119;SDS011;64852;48.092;-1.640;2023-06-22T08:44:13;10.93;;;2.53;;
76119;SDS011;64852;48.092;-1.640;2023-06-22T08:46:39;2.70;;;2.50;;
76119;SDS011;64852;48.092;-1.640;2023-06-22T08:49:05;2.40;;;2.30;;
76119;SDS011;64852;48.092;-1.640;2023-06-22T08:51:31;2.30;;;2.10;;
76119;SDS011;64852;48.092;-1.640;2023-06-22T08:53:57;2.08;;;1.98;;
76119;SDS011;64852;48.092;-1.640;2023-06-22T08:56:23;2.73;;;2.53;;
76119;SDS011;64852;48.092;-1.640;2023-06-22T08:58:49;3.63;;;2.07;;
76119;SDS011;64852;48.092;-1.640;2023-06-22T09:01:14;2.33;;;2.13;;
76119;SDS011;64852;48.092;-1.640;2023-06-22T09:03:42;2.30;;;2.20;;
76119;SDS011;64852;48.092;-1.640;2023-06-22T09:06:08;2.03;;;1.93;;
76119;SDS011;64852;48.092;-1.640;2023-06-22T09:08:38;2.60;;;2.40;;
76119;SDS011;64852;48.092;-1.640;2023-06-22T09:11:04;2.40;;;2.20;;
76119;SDS011;64852;48.092;-1.640;2023-06-22T09:13:30;2.03;;;1.93;;
76119;SDS011;64852;48.092;-1.640;2023-06-22T09:15:56;1.80;;;1.70;;
76119;SDS011;64852;48.092;-1.640;2023-06-22T09:18:22;2.10;;;2.00;;
76119;SDS011;64852;48.092;-1.640;2023-06-22T09:20:48;2.30;;;2.10;;
76119;SDS011;64852;48.092;-1.640;2023-06-22T09:23:14;2.10;;;2.00;;
76119;SDS011;64852;48.092;-1.640;2023-06-22T09:25:40;3.73;;;2.40;;
76119;SDS011;64852;48.092;-1.640;2023-06-22T09:28:06;1.90;;;1.80;;
76119;SDS011;64852;48.092;-1.640;2023-06-22T09:30:31;1.90;;;1.80;;
76119;SDS011;64852;48.092;-1.640;2023-06-22T09:32:57;2.43;;;2.23;;
76119;SDS011;64852;48.092;-1.640;2023-06-22T09:35:22;2.00;;;1.80;;
76119;SDS011;64852;48.092;-1.640;2023-06-22T09:37:48;1.97;;;1.80;;
76119;SDS011;64852;48.092;-1.640;2023-06-22T09:40:13;2.20;;;1.97;;
76119;SDS011;64852;48.092;-1.640;2023-06-22T09:42:41;3.13;;;2.70;;
76119;SDS011;64852;48.092;-1.640;2023-06-22T09:45:08;1.75;;;1.65;;
76119;SDS011;64852;48.092;-1.640;2023-06-22T09:47:34;3.45;;;2.50;;
76119;SDS011;64852;48.092;-1.640;2023-06-22T09:49:59;2.47;;;1.80;;
76119;SDS011;64852;48.092;-1.640;2023-06-22T09:52:25;3.67;;;1.97;;
76119;SDS011;64852;48.092;-1.640;2023-06-22T09:54:51;1.95;;;1.67;;
76119;SDS011;64852;48.092;-1.640;2023-06-22T09:57:16;3.40;;;2.80;;
76119;SDS011;64852;48.092;-1.640;2023-06-22T09:59:42;1.40;;;1.40;;
76119;SDS011;64852;48.092;-1.640;2023-06-22T10:02:07;5.07;;;2.23;;
76119;SDS011;64852;48.092;-1.640;2023-06-22T10:04:34;2.72;;;1.85;;
76119;SDS011;64852;48.092;-1.640;2023-06-22T10:07:00;2.65;;;1.73;;
76119;SDS011;64852;48.092;-1.640;2023-06-22T10:09:26;1.70;;;1.60;;
76119;SDS011;64852;48.092;-1.640;2023-06-22T10:11:52;1.65;;;1.55;;
76119;SDS011;64852;48.092;-1.640;2023-06-22T10:14:18;2.27;;;2.00;;
76119;SDS011;64852;48.092;-1.640;2023-06-22T10:16:44;1.73;;;1.63;;
76119;SDS011;64852;48.092;-1.640;2023-06-22T10:19:09;2.13;;;1.92;;
76119;SDS011;64852;48.092;-1.640;2023-06-22T10:21:35;2.40;;;2.20;;
76119;SDS011;64852;48.092;-1.640;2023-06-22T10:24:01;2.05;;;1.73;;
76119;SDS011;64852;48.092;-1.640;2023-06-22T10:26:31;2.47;;;1.70;;
76119;SDS011;64852;48.092;-1.640;2023-06-22T10:28:57;2.33;;;2.10;;
76119;SDS011;64852;48.092;-1.640;2023-06-22T10:31:23;3.47;;;2.53;;
76119;SDS011;64852;48.092;-1.640;2023-06-22T10:33:49;2.50;;;2.20;;
76119;SDS011;64852;48.092;-1.640;2023-06-22T10:36:15;1.90;;;1.77;;
76119;SDS011;64852;48.092;-1.640;2023-06-22T10:38:40;10.07;;;1.90;;
76119;SDS011;64852;48.092;-1.640;2023-06-22T10:41:06;1.50;;;1.40;;
76119;SDS011;64852;48.092;-1.640;2023-06-22T10:43:32;1.73;;;1.37;;
76119;SDS011;64852;48.092;-1.640;2023-06-22T10:45:57;2.70;;;2.20;;
76119;SDS011;64852;48.092;-1.640;2023-06-22T10:48:23;1.67;;;1.58;;
76119;SDS011;64852;48.092;-1.640;2023-06-22T10:50:48;1.53;;;1.43;;
76119;SDS011;64852;48.092;-1.640;2023-06-22T10:53:14;1.80;;;1.70;;
76119;SDS011;64852;48.092;-1.640;2023-06-22T10:55:40;1.57;;;1.47;;
76119;SDS011;64852;48.092;-1.640;2023-06-22T10:58:05;9.40;;;3.20;;
76119;SDS011;64852;48.092;-1.640;2023-06-22T11:00:31;2.10;;;1.60;;
76119;SDS011;64852;48.092;-1.640;2023-06-22T11:02:56;2.67;;;1.93;;
76119;SDS011;64852;48.092;-1.640;2023-06-22T11:05:23;1.95;;;1.83;;
76119;SDS011;64852;48.092;-1.640;2023-06-22T11:07:49;1.48;;;1.35;;
76119;SDS011;64852;48.092;-1.640;2023-06-22T11:12:41;2.33;;;1.52;;
76119;SDS011;64852;48.092;-1.640;2023-06-22T11:15:07;3.70;;;1.70;;
76119;SDS011;64852;48.092;-1.640;2023-06-22T11:17:34;2.67;;;2.35;;
76119;SDS011;64852;48.092;-1.640;2023-06-22T11:20:00;4.78;;;2.50;;
76119;SDS011;64852;48.092;-1.640;2023-06-22T11:22:26;1.60;;;1.50;;
76119;SDS011;64852;48.092;-1.640;2023-06-22T11:24:51;4.72;;;2.25;;
76119;SDS011;64852;48.092;-1.640;2023-06-22T11:27:17;3.73;;;1.80;;
76119;SDS011;64852;48.092;-1.640;2023-06-22T11:29:43;2.33;;;1.63;;
76119;SDS011;64852;48.092;-1.640;2023-06-22T11:32:08;1.60;;;1.42;;
76119;SDS011;64852;48.092;-1.640;2023-06-22T11:34:34;3.57;;;2.00;;
76119;SDS011;64852;48.092;-1.640;2023-06-22T11:41:51;1.15;;;1.10;;
76119;SDS011;64852;48.092;-1.640;2023-06-22T12:01:15;2.55;;;1.58;;
76119;SDS011;64852;48.092;-1.640;2023-06-22T12:03:41;1.17;;;1.13;;
76119;SDS011;64852;48.092;-1.640;2023-06-22T12:06:08;1.63;;;1.52;;
76119;SDS011;64852;48.092;-1.640;2023-06-22T12:08:34;2.40;;;1.55;;
76119;SDS011;64852;48.092;-1.640;2023-06-22T12:57:10;7.18;;;1.48;;
76119;SDS011;64852;48.092;-1.640;2023-06-22T12:59:36;1.15;;;1.15;;
76119;SDS011;64852;48.092;-1.640;2023-06-22T13:06:53;1.35;;;1.25;;
76119;SDS011;64852;48.092;-1.640;2023-06-22T14:00:17;1.50;;;1.38;;
76119;SDS011;64852;48.092;-1.640;2023-06-22T17:25:00;1.70;;;1.60;;
76119;SDS011;64852;48.092;-1.640;2023-06-22T17:52:03;2.88;;;1.73;;
76119;SDS011;64852;48.092;-1.640;2023-06-22T18:11:35;1.40;;;1.30;;
76119;SDS011;64852;48.092;-1.640;2023-06-22T18:16:33;1.30;;;1.20;;
76119;SDS011;64852;48.092;-1.640;2023-06-22T18:19:02;1.77;;;1.08;;
76119;SDS011;64852;48.092;-1.640;2023-06-22T18:21:28;1.42;;;1.33;;
76119;SDS011;64852;48.092;-1.640;2023-06-22T18:23:55;1.77;;;1.10;;
76119;SDS011;64852;48.092;-1.640;2023-06-22T18:28:50;2.88;;;1.02;;
76119;SDS011;64852;48.092;-1.640;2023-06-22T18:31:17;2.55;;;1.73;;
76119;SDS011;64852;48.092;-1.640;2023-06-22T18:33:44;1.40;;;1.23;;
76119;SDS011;64852;48.092;-1.640;2023-06-22T18:36:09;1.58;;;1.48;;
76119;SDS011;64852;48.092;-1.640;2023-06-22T18:38:40;1.23;;;1.15;;
76119;SDS011;64852;48.092;-1.640;2023-06-22T18:41:19;0.90;;;0.90;;
76119;SDS011;64852;48.092;-1.640;2023-06-22T18:43:52;1.23;;;1.17;;
76119;SDS011;64852;48.092;-1.640;2023-06-22T18:46:31;1.85;;;1.38;;
76119;SDS011;64852;48.092;-1.640;2023-06-22T18:49:02;1.83;;;1.38;;
76119;SDS011;64852;48.092;-1.640;2023-06-22T18:54:34;2.45;;;1.35;;
76119;SDS011;64852;48.092;-1.640;2023-06-22T18:57:13;1.63;;;1.30;;
76119;SDS011;64852;48.092;-1.640;2023-06-22T18:59:42;1.20;;;1.10;;
76119;SDS011;64852;48.092;-1.640;2023-06-22T19:02:33;1.40;;;1.30;;
76119;SDS011;64852;48.092;-1.640;2023-06-22T19:10:22;1.83;;;1.23;;
76119;SDS011;64852;48.092;-1.640;2023-06-22T19:12:51;0.90;;;0.90;;
76119;SDS011;64852;48.092;-1.640;2023-06-22T19:15:40;1.48;;;1.38;;
76119;SDS011;64852;48.092;-1.640;2023-06-22T19:18:19;1.38;;;1.27;;
76119;SDS011;64852;48.092;-1.640;2023-06-22T19:26:00;1.67;;;1.27;;
76119;SDS011;64852;48.092;-1.640;2023-06-22T19:28:30;1.73;;;1.15;;
76119;SDS011;64852;48.092;-1.640;2023-06-22T19:30:57;1.05;;;1.00;;
76119;SDS011;64852;48.092;-1.640;2023-06-22T19:33:24;1.15;;;1.10;;
76119;SDS011;64852;48.092;-1.640;2023-06-22T19:35:51;1.05;;;1.02;;
76119;SDS011;64852;48.092;-1.640;2023-06-22T19:38:23;2.10;;;1.73;;
76119;SDS011;64852;48.092;-1.640;2023-06-22T19:40:50;2.10;;;1.17;;
76119;SDS011;64852;48.092;-1.640;2023-06-22T19:43:16;1.60;;;1.50;;
76119;SDS011;64852;48.092;-1.640;2023-06-22T19:45:42;1.73;;;1.38;;
76119;SDS011;64852;48.092;-1.640;2023-06-22T19:48:12;1.90;;;1.50;;
76119;SDS011;64852;48.092;-1.640;2023-06-22T19:50:40;12.13;;;1.95;;
76119;SDS011;64852;48.092;-1.640;2023-06-22T19:53:16;1.50;;;1.40;;
76119;SDS011;64852;48.092;-1.640;2023-06-22T19:55:43;1.20;;;1.10;;
76119;SDS011;64852;48.092;-1.640;2023-06-22T19:58:13;2.05;;;1.27;;
76119;SDS011;64852;48.092;-1.640;2023-06-22T20:00:39;1.75;;;1.35;;
76119;SDS011;64852;48.092;-1.640;2023-06-22T20:03:09;1.33;;;1.00;;
76119;SDS011;64852;48.092;-1.640;2023-06-22T20:05:45;2.05;;;1.42;;
76119;SDS011;64852;48.092;-1.640;2023-06-22T20:08:13;0.90;;;0.90;;
76119;SDS011;64852;48.092;-1.640;2023-06-22T20:10:41;1.30;;;1.15;;
76119;SDS011;64852;48.092;-1.640;2023-06-22T20:15:40;1.42;;;1.33;;
76119;SDS011;64852;48.092;-1.640;2023-06-22T20:18:08;1.30;;;1.20;;
76119;SDS011;64852;48.092;-1.640;2023-06-22T20:20:35;2.05;;;1.65;;
76119;SDS011;64852;48.092;-1.640;2023-06-22T20:23:02;0.80;;;0.80;;
76119;SDS011;64852;48.092;-1.640;2023-06-22T20:25:30;1.35;;;1.02;;
76119;SDS011;64852;48.092;-1.640;2023-06-22T20:28:03;1.85;;;1.25;;
76119;SDS011;64852;48.092;-1.640;2023-06-22T20:30:37;1.20;;;1.10;;
76119;SDS011;64852;48.092;-1.640;2023-06-22T20:33:05;1.40;;;1.20;;
76119;SDS011;64852;48.092;-1.640;2023-06-22T20:35:39;5.65;;;1.30;;
76119;SDS011;64852;48.092;-1.640;2023-06-22T20:38:05;1.40;;;1.30;;
76119;SDS011;64852;48.092;-1.640;2023-06-22T20:40:31;1.17;;;1.10;;
76119;SDS011;64852;48.092;-1.640;2023-06-22T20:42:57;0.90;;;0.90;;
76119;SDS011;64852;48.092;-1.640;2023-06-22T20:45:24;1.13;;;1.10;;
76119;SDS011;64852;48.092;-1.640;2023-06-22T20:47:52;1.20;;;1.10;;
76119;SDS011;64852;48.092;-1.640;2023-06-22T20:50:24;1.20;;;1.10;;
76119;SDS011;64852;48.092;-1.640;2023-06-22T21:05:09;2.03;;;1.50;;
76119;SDS011;64852;48.092;-1.640;2023-06-22T21:07:35;1.40;;;1.30;;
76119;SDS011;64852;48.092;-1.640;2023-06-22T21:10:03;2.38;;;1.50;;
76119;SDS011;64852;48.092;-1.640;2023-06-22T21:12:29;3.50;;;1.10;;
76119;SDS011;64852;48.092;-1.640;2023-06-22T21:14:54;1.50;;;1.20;;
76119;SDS011;64852;48.092;-1.640;2023-06-22T21:17:21;1.33;;;1.23;;
76119;SDS011;64852;48.092;-1.640;2023-06-22T21:19:47;1.90;;;1.70;;
76119;SDS011;64852;48.092;-1.640;2023-06-22T21:22:13;1.80;;;1.70;;
76119;SDS011;64852;48.092;-1.640;2023-06-22T21:24:39;2.63;;;1.00;;
76119;SDS011;64852;48.092;-1.640;2023-06-22T21:27:05;2.70;;;1.33;;
76119;SDS011;64852;48.092;-1.640;2023-06-22T21:29:31;5.00;;;1.50;;
76119;SDS011;64852;48.092;-1.640;2023-06-22T21:31:56;1.17;;;1.13;;
76119;SDS011;64852;48.092;-1.640;2023-06-22T21:34:22;1.43;;;1.23;;
76119;SDS011;64852;48.092;-1.640;2023-06-22T21:36:48;1.30;;;1.20;;